Time,TemperatureF,DewpointF,PressureIn,WindDirection,WindDirectionDegrees,WindSpeedMPH,WindSpeedGustMPH,Humidity,HourlyPrecipIn,Conditions,Clouds,dailyrainin,SoftwareType,DateUTC
2013-04-03 00:03:00,47.1,46.6,29.96,North,0,9.0,-999.0,98,0.30,,,0.64,Wunderground v.1.15,2013-04-03 05:03:00,
2013-04-03 00:08:00,47.1,46.6,29.96,North,0,9.0,-999.0,98,0.30,,,0.64,Wunderground v.1.15,2013-04-03 05:08:00,
2013-04-03 00:13:00,47.1,46.6,29.96,North,0,9.0,-999.0,98,0.30,,,0.64,Wunderground v.1.15,2013-04-03 05:13:00,
2013-04-03 00:18:00,47.1,46.6,29.96,North,0,9.0,-999.0,98,0.30,,,0.64,Wunderground v.1.15,2013-04-03 05:18:00,
2013-04-03 00:23:00,47.1,46.6,29.96,North,0,9.0,-999.0,98,0.30,,,0.64,Wunderground v.1.15,2013-04-03 05:23:00,
2013-04-03 00:28:00,47.1,46.6,29.96,North,0,9.0,-999.0,98,0.30,,,0.64,Wunderground v.1.15,2013-04-03 05:28:00,
2013-04-03 00:33:00,47.1,46.6,29.96,North,0,9.0,-999.0,98,0.30,,,0.64,Wunderground v.1.15,2013-04-03 05:33:00,
2013-04-03 00:38:00,47.1,46.6,29.96,North,0,9.0,-999.0,98,0.30,,,0.64,Wunderground v.1.15,2013-04-03 05:38:00,
2013-04-03 00:43:00,47.1,46.6,29.96,North,0,9.0,-999.0,98,0.30,,,0.64,Wunderground v.1.15,2013-04-03 05:43:00,
2013-04-03 00:48:00,47.9,47.4,29.94,ENE,68,5.0,-999.0,98,0.38,,,0.64,Wunderground v.1.15,2013-04-03 05:48:00,
2013-04-03 00:53:00,47.9,47.4,29.94,ENE,68,5.0,-999.0,98,0.38,,,0.64,Wunderground v.1.15,2013-04-03 05:53:00,
2013-04-03 00:58:00,47.9,47.4,29.94,ENE,68,5.0,-999.0,98,0.38,,,0.64,Wunderground v.1.15,2013-04-03 05:58:00,
2013-04-03 01:03:00,47.9,47.4,29.94,ENE,68,5.0,-999.0,98,0.13,,,0.64,Wunderground v.1.15,2013-04-03 06:03:00,
2013-04-03 01:08:00,47.9,47.4,29.94,ENE,68,5.0,-999.0,98,0.13,,,0.64,Wunderground v.1.15,2013-04-03 06:08:00,
2013-04-03 01:13:00,47.9,47.4,29.94,ENE,68,5.0,-999.0,98,0.13,,,0.64,Wunderground v.1.15,2013-04-03 06:13:00,
2013-04-03 01:18:00,50.3,50.0,29.93,NE,45,7.0,-999.0,99,0.31,,,0.64,Wunderground v.1.15,2013-04-03 06:18:00,
2013-04-03 01:23:00,50.3,50.0,29.93,NE,45,7.0,-999.0,99,0.31,,,0.64,Wunderground v.1.15,2013-04-03 06:23:00,
2013-04-03 01:28:00,50.3,50.0,29.93,NE,45,7.0,-999.0,99,0.31,,,0.64,Wunderground v.1.15,2013-04-03 06:28:00,
2013-04-03 01:33:00,50.3,50.0,29.93,NE,45,7.0,-999.0,99,0.31,,,0.64,Wunderground v.1.15,2013-04-03 06:33:00,
2013-04-03 01:38:00,50.3,50.0,29.93,NE,45,7.0,-999.0,99,0.31,,,0.64,Wunderground v.1.15,2013-04-03 06:38:00,
2013-04-03 01:43:00,50.3,50.0,29.93,NE,45,7.0,-999.0,99,0.31,,,0.64,Wunderground v.1.15,2013-04-03 06:43:00,
2013-04-03 01:48:00,50.3,50.0,29.93,NE,45,9.0,-999.0,99,0.25,,,0.64,Wunderground v.1.15,2013-04-03 06:48:00,
2013-04-03 01:53:00,50.3,50.0,29.93,NE,45,9.0,-999.0,99,0.25,,,0.64,Wunderground v.1.15,2013-04-03 06:53:00,
2013-04-03 01:58:00,50.3,50.0,29.93,NE,45,9.0,-999.0,99,0.25,,,0.64,Wunderground v.1.15,2013-04-03 06:58:00,
2013-04-03 02:03:00,50.3,50.0,29.93,NE,45,9.0,-999.0,99,0.25,,,0.64,Wunderground v.1.15,2013-04-03 07:03:00,
2013-04-03 02:08:00,50.3,50.0,29.93,NE,45,9.0,-999.0,99,0.25,,,0.64,Wunderground v.1.15,2013-04-03 07:08:00,
2013-04-03 02:13:00,50.3,50.0,29.93,NE,45,9.0,-999.0,99,0.25,,,0.64,Wunderground v.1.15,2013-04-03 07:13:00,
2013-04-03 02:18:00,49.7,49.4,29.88,NE,45,12.0,-999.0,99,0.08,,,0.64,Wunderground v.1.15,2013-04-03 07:18:00,
2013-04-03 02:23:00,49.7,49.4,29.88,NE,45,12.0,-999.0,99,0.08,,,0.64,Wunderground v.1.15,2013-04-03 07:23:00,
2013-04-03 02:28:00,49.7,49.4,29.88,NE,45,12.0,-999.0,99,0.08,,,0.64,Wunderground v.1.15,2013-04-03 07:28:00,
2013-04-03 02:33:00,49.7,49.4,29.88,NE,45,12.0,-999.0,99,0.08,,,0.64,Wunderground v.1.15,2013-04-03 07:33:00,
2013-04-03 02:38:00,49.7,49.4,29.88,NE,45,12.0,-999.0,99,0.08,,,0.64,Wunderground v.1.15,2013-04-03 07:38:00,
2013-04-03 02:43:00,49.7,49.4,29.88,NE,45,12.0,-999.0,99,0.08,,,0.64,Wunderground v.1.15,2013-04-03 07:43:00,
2013-04-03 02:48:00,50.9,50.6,29.84,ENE,68,11.0,-999.0,99,0.01,,,0.64,Wunderground v.1.15,2013-04-03 07:48:00,
2013-04-03 02:53:00,50.9,50.6,29.84,ENE,68,11.0,-999.0,99,0.01,,,0.64,Wunderground v.1.15,2013-04-03 07:53:00,
2013-04-03 02:58:00,50.9,50.6,29.84,ENE,68,11.0,-999.0,99,0.01,,,0.64,Wunderground v.1.15,2013-04-03 07:58:00,
2013-04-03 03:03:00,50.9,50.6,29.84,ENE,68,11.0,-999.0,99,0.01,,,0.64,Wunderground v.1.15,2013-04-03 08:03:00,
2013-04-03 03:08:00,50.9,50.6,29.84,ENE,68,11.0,-999.0,99,0.01,,,0.64,Wunderground v.1.15,2013-04-03 08:08:00,
2013-04-03 03:13:00,50.9,50.6,29.84,ENE,68,11.0,-999.0,99,0.01,,,0.64,Wunderground v.1.15,2013-04-03 08:13:00,
2013-04-03 03:18:00,51.1,50.8,29.85,ENE,68,11.0,-999.0,99,0.00,,,0.64,Wunderground v.1.15,2013-04-03 08:18:00,
2013-04-03 03:23:00,51.1,50.8,29.85,ENE,68,11.0,-999.0,99,0.00,,,0.64,Wunderground v.1.15,2013-04-03 08:23:00,
2013-04-03 03:28:00,51.1,50.8,29.85,ENE,68,11.0,-999.0,99,0.00,,,0.64,Wunderground v.1.15,2013-04-03 08:28:00,
2013-04-03 03:33:00,51.1,50.8,29.85,ENE,68,11.0,-999.0,99,0.00,,,0.64,Wunderground v.1.15,2013-04-03 08:33:00,
2013-04-03 03:38:00,51.1,50.8,29.85,ENE,68,11.0,-999.0,99,0.00,,,0.64,Wunderground v.1.15,2013-04-03 08:38:00,
2013-04-03 03:43:00,51.1,50.8,29.85,ENE,68,11.0,-999.0,99,0.00,,,0.64,Wunderground v.1.15,2013-04-03 08:43:00,
2013-04-03 03:48:00,50.6,50.3,29.87,ENE,68,8.0,-999.0,99,0.00,,,0.64,Wunderground v.1.15,2013-04-03 08:48:00,
2013-04-03 03:53:00,50.6,50.3,29.87,ENE,68,8.0,-999.0,99,0.00,,,0.64,Wunderground v.1.15,2013-04-03 08:53:00,
2013-04-03 03:58:00,50.6,50.3,29.87,ENE,68,8.0,-999.0,99,0.00,,,0.64,Wunderground v.1.15,2013-04-03 08:58:00,
2013-04-03 04:03:00,50.6,50.3,29.87,ENE,68,8.0,-999.0,99,0.00,,,0.64,Wunderground v.1.15,2013-04-03 09:03:00,
2013-04-03 04:08:00,50.6,50.3,29.87,ENE,68,8.0,-999.0,99,0.00,,,0.64,Wunderground v.1.15,2013-04-03 09:08:00,
2013-04-03 04:13:00,50.6,50.3,29.87,ENE,68,8.0,-999.0,99,0.00,,,0.64,Wunderground v.1.15,2013-04-03 09:13:00,
2013-04-03 04:18:00,50.9,50.6,29.90,North,0,6.0,-999.0,99,0.00,,,0.64,Wunderground v.1.15,2013-04-03 09:18:00,
2013-04-03 04:23:00,50.9,50.6,29.90,North,0,6.0,-999.0,99,0.00,,,0.64,Wunderground v.1.15,2013-04-03 09:23:00,
2013-04-03 04:28:00,50.9,50.6,29.90,North,0,6.0,-999.0,99,0.00,,,0.64,Wunderground v.1.15,2013-04-03 09:28:00,
2013-04-03 04:33:00,50.9,50.6,29.90,North,0,6.0,-999.0,99,0.00,,,0.64,Wunderground v.1.15,2013-04-03 09:33:00,
2013-04-03 04:38:00,50.9,50.6,29.90,North,0,6.0,-999.0,99,0.00,,,0.64,Wunderground v.1.15,2013-04-03 09:38:00,
2013-04-03 04:43:00,50.9,50.6,29.90,North,0,6.0,-999.0,99,0.00,,,0.64,Wunderground v.1.15,2013-04-03 09:43:00,
2013-04-03 04:48:00,51.6,51.3,29.91,North,0,2.0,-999.0,99,0.00,,,0.64,Wunderground v.1.15,2013-04-03 09:48:00,
2013-04-03 04:53:00,51.6,51.3,29.91,North,0,2.0,-999.0,99,0.00,,,0.64,Wunderground v.1.15,2013-04-03 09:53:00,
2013-04-03 04:58:00,51.6,51.3,29.91,North,0,2.0,-999.0,99,0.00,,,0.64,Wunderground v.1.15,2013-04-03 09:58:00,
2013-04-03 05:03:00,51.6,51.3,29.91,North,0,2.0,-999.0,99,0.00,,,0.64,Wunderground v.1.15,2013-04-03 10:03:00,
2013-04-03 05:08:00,51.6,51.3,29.91,North,0,2.0,-999.0,99,0.00,,,0.64,Wunderground v.1.15,2013-04-03 10:08:00,
2013-04-03 05:13:00,51.6,51.3,29.91,North,0,2.0,-999.0,99,0.00,,,0.64,Wunderground v.1.15,2013-04-03 10:13:00,
2013-04-03 05:18:00,50.1,49.8,29.93,NW,315,6.0,-999.0,99,0.00,,,0.64,Wunderground v.1.15,2013-04-03 10:18:00,
2013-04-03 05:23:00,50.1,49.8,29.93,NW,315,6.0,-999.0,99,0.00,,,0.64,Wunderground v.1.15,2013-04-03 10:23:00,
2013-04-03 05:28:00,50.1,49.8,29.93,NW,315,6.0,-999.0,99,0.00,,,0.64,Wunderground v.1.15,2013-04-03 10:28:00,
2013-04-03 05:33:00,50.1,49.8,29.93,NW,315,6.0,-999.0,99,0.00,,,0.64,Wunderground v.1.15,2013-04-03 10:33:00,
2013-04-03 05:38:00,50.1,49.8,29.93,NW,315,6.0,-999.0,99,0.00,,,0.64,Wunderground v.1.15,2013-04-03 10:38:00,
2013-04-03 05:43:00,50.1,49.8,29.93,NW,315,6.0,-999.0,99,0.00,,,0.64,Wunderground v.1.15,2013-04-03 10:43:00,
2013-04-03 05:48:00,47.8,47.5,29.95,NW,315,10.0,-999.0,99,0.00,,,0.64,Wunderground v.1.15,2013-04-03 10:48:00,
2013-04-03 05:53:00,47.8,47.5,29.95,NW,315,10.0,-999.0,99,0.00,,,0.64,Wunderground v.1.15,2013-04-03 10:53:00,
2013-04-03 05:58:00,47.8,47.5,29.95,NW,315,10.0,-999.0,99,0.00,,,0.64,Wunderground v.1.15,2013-04-03 10:58:00,
2013-04-03 06:03:00,47.8,47.5,29.95,NW,315,10.0,-999.0,99,0.00,,,0.64,Wunderground v.1.15,2013-04-03 11:03:00,
2013-04-03 06:08:00,47.8,47.5,29.95,NW,315,10.0,-999.0,99,0.00,,,0.64,Wunderground v.1.15,2013-04-03 11:08:00,
2013-04-03 06:13:00,47.8,47.5,29.95,NW,315,10.0,-999.0,99,0.00,,,0.64,Wunderground v.1.15,2013-04-03 11:13:00,
2013-04-03 06:18:00,47.2,46.9,29.96,NNW,338,10.0,-999.0,99,0.00,,,0.64,Wunderground v.1.15,2013-04-03 11:18:00,
2013-04-03 06:23:00,47.2,46.9,29.96,NNW,338,10.0,-999.0,99,0.00,,,0.64,Wunderground v.1.15,2013-04-03 11:23:00,
2013-04-03 06:28:00,47.2,46.9,29.96,NNW,338,10.0,-999.0,99,0.00,,,0.64,Wunderground v.1.15,2013-04-03 11:28:00,
2013-04-03 06:33:00,47.2,46.9,29.96,NNW,338,10.0,-999.0,99,0.00,,,0.64,Wunderground v.1.15,2013-04-03 11:33:00,
2013-04-03 06:38:00,47.2,46.9,29.96,NNW,338,10.0,-999.0,99,0.00,,,0.64,Wunderground v.1.15,2013-04-03 11:38:00,
2013-04-03 06:43:00,47.2,46.9,29.96,NNW,338,10.0,-999.0,99,0.00,,,0.64,Wunderground v.1.15,2013-04-03 11:43:00,
2013-04-03 06:48:00,47.5,47.2,29.96,NNW,338,10.0,-999.0,99,0.00,,,0.64,Wunderground v.1.15,2013-04-03 11:48:00,
2013-04-03 06:53:00,47.5,47.2,29.96,NNW,338,10.0,-999.0,99,0.00,,,0.64,Wunderground v.1.15,2013-04-03 11:53:00,
2013-04-03 06:58:00,47.5,47.2,29.96,NNW,338,10.0,-999.0,99,0.00,,,0.64,Wunderground v.1.15,2013-04-03 11:58:00,
2013-04-03 07:03:00,47.5,47.2,29.96,NNW,338,10.0,-999.0,99,0.00,,,0.64,Wunderground v.1.15,2013-04-03 12:03:00,
2013-04-03 07:08:00,47.5,47.2,29.96,NNW,338,10.0,-999.0,99,0.00,,,0.64,Wunderground v.1.15,2013-04-03 12:08:00,
2013-04-03 07:13:00,47.5,47.2,29.96,NNW,338,10.0,-999.0,99,0.00,,,0.64,Wunderground v.1.15,2013-04-03 12:13:00,
2013-04-03 07:18:00,47.7,47.4,29.97,NNE,23,9.0,-999.0,99,0.00,,,0.64,Wunderground v.1.15,2013-04-03 12:18:00,
2013-04-03 07:23:00,47.7,47.4,29.97,NNE,23,9.0,-999.0,99,0.00,,,0.64,Wunderground v.1.15,2013-04-03 12:23:00,
2013-04-03 07:28:00,47.7,47.4,29.97,NNE,23,9.0,-999.0,99,0.00,,,0.64,Wunderground v.1.15,2013-04-03 12:28:00,
2013-04-03 07:33:00,47.7,47.4,29.97,NNE,23,9.0,-999.0,99,0.00,,,0.64,Wunderground v.1.15,2013-04-03 12:33:00,
2013-04-03 07:38:00,47.7,47.4,29.97,NNE,23,9.0,-999.0,99,0.00,,,0.64,Wunderground v.1.15,2013-04-03 12:38:00,
2013-04-03 07:43:00,47.7,47.4,29.97,NNE,23,9.0,-999.0,99,0.00,,,0.64,Wunderground v.1.15,2013-04-03 12:43:00,
2013-04-03 07:48:00,47.6,47.3,29.98,NNE,23,11.0,-999.0,99,0.00,,,0.64,Wunderground v.1.15,2013-04-03 12:48:00,
2013-04-03 07:53:00,47.6,47.3,29.98,NNE,23,11.0,-999.0,99,0.00,,,0.64,Wunderground v.1.15,2013-04-03 12:53:00,
2013-04-03 07:58:00,47.6,47.3,29.98,NNE,23,11.0,-999.0,99,0.00,,,0.64,Wunderground v.1.15,2013-04-03 12:58:00,
2013-04-03 08:03:00,47.6,47.3,29.98,NNE,23,11.0,-999.0,99,0.00,,,0.64,Wunderground v.1.15,2013-04-03 13:03:00,
2013-04-03 08:08:00,47.6,47.3,29.98,NNE,23,11.0,-999.0,99,0.00,,,0.64,Wunderground v.1.15,2013-04-03 13:08:00,
2013-04-03 08:13:00,47.6,47.3,29.98,NNE,23,11.0,-999.0,99,0.00,,,0.64,Wunderground v.1.15,2013-04-03 13:13:00,
2013-04-03 08:18:00,46.5,46.2,30.00,NE,45,12.0,-999.0,99,0.00,,,0.64,Wunderground v.1.15,2013-04-03 13:18:00,
2013-04-03 08:23:00,46.5,46.2,30.00,NE,45,12.0,-999.0,99,0.00,,,0.64,Wunderground v.1.15,2013-04-03 13:23:00,
2013-04-03 08:28:00,46.5,46.2,30.00,NE,45,12.0,-999.0,99,0.00,,,0.64,Wunderground v.1.15,2013-04-03 13:28:00,
2013-04-03 08:33:00,46.5,46.2,30.00,NE,45,12.0,-999.0,99,0.00,,,0.64,Wunderground v.1.15,2013-04-03 13:33:00,
2013-04-03 08:38:00,46.5,46.2,30.00,NE,45,12.0,-999.0,99,0.00,,,0.64,Wunderground v.1.15,2013-04-03 13:38:00,
2013-04-03 08:43:00,46.5,46.2,30.00,NE,45,12.0,-999.0,99,0.00,,,0.64,Wunderground v.1.15,2013-04-03 13:43:00,
2013-04-03 08:48:00,46.2,45.9,30.02,NNE,23,11.0,-999.0,99,0.00,,,0.64,Wunderground v.1.15,2013-04-03 13:48:00,
2013-04-03 08:53:00,46.2,45.9,30.02,NNE,23,11.0,-999.0,99,0.00,,,0.64,Wunderground v.1.15,2013-04-03 13:53:00,
2013-04-03 08:58:00,46.2,45.9,30.02,NNE,23,11.0,-999.0,99,0.00,,,0.64,Wunderground v.1.15,2013-04-03 13:58:00,
2013-04-03 09:03:00,46.2,45.9,30.02,NNE,23,11.0,-999.0,99,0.00,,,0.64,Wunderground v.1.15,2013-04-03 14:03:00,
2013-04-03 09:08:00,46.2,45.9,30.02,NNE,23,11.0,-999.0,99,0.00,,,0.64,Wunderground v.1.15,2013-04-03 14:08:00,
2013-04-03 09:13:00,46.2,45.9,30.02,NNE,23,11.0,-999.0,99,0.00,,,0.64,Wunderground v.1.15,2013-04-03 14:13:00,
2013-04-03 09:18:00,46.1,45.8,30.02,NNE,23,8.0,-999.0,99,0.00,,,0.64,Wunderground v.1.15,2013-04-03 14:18:00,
2013-04-03 09:23:00,46.1,45.8,30.02,NNE,23,8.0,-999.0,99,0.00,,,0.64,Wunderground v.1.15,2013-04-03 14:23:00,
2013-04-03 09:28:00,46.1,45.8,30.02,NNE,23,8.0,-999.0,99,0.00,,,0.64,Wunderground v.1.15,2013-04-03 14:28:00,
2013-04-03 09:33:00,46.1,45.8,30.02,NNE,23,8.0,-999.0,99,0.00,,,0.64,Wunderground v.1.15,2013-04-03 14:33:00,
2013-04-03 09:38:00,46.1,45.8,30.02,NNE,23,8.0,-999.0,99,0.00,,,0.64,Wunderground v.1.15,2013-04-03 14:38:00,
2013-04-03 09:43:00,46.1,45.8,30.02,NNE,23,8.0,-999.0,99,0.00,,,0.64,Wunderground v.1.15,2013-04-03 14:43:00,
2013-04-03 09:48:00,46.1,45.8,30.08,NNE,23,8.0,-999.0,99,0.00,,,0.64,Wunderground v.1.15,2013-04-03 14:48:00,
2013-04-03 09:53:00,46.1,45.8,30.08,NNE,23,8.0,-999.0,99,0.00,,,0.64,Wunderground v.1.15,2013-04-03 14:53:00,
2013-04-03 10:00:00,46.1,45.8,30.08,NW,316,7.0,14.0,99,0.00,,,0.64,Wunderground v.1.15,2013-04-03 15:00:00,
2013-04-03 10:05:00,46.1,45.8,30.08,NNE,23,8.0,-999.0,99,0.00,,,0.64,Wunderground v.1.15,2013-04-03 15:05:00,
2013-04-03 10:11:00,46.0,45.7,30.06,North,3,7.0,7.0,99,0.00,,,0.64,Wunderground v.1.15,2013-04-03 15:11:00,
2013-04-03 10:16:00,46.0,45.7,30.05,North,8,7.0,9.0,99,0.00,,,0.65,Wunderground v.1.15,2013-04-03 15:16:00,
2013-04-03 10:22:00,45.9,45.6,30.03,NE,37,9.0,13.0,99,0.00,,,0.65,Wunderground v.1.15,2013-04-03 15:22:00,
2013-04-03 10:28:00,46.0,45.7,30.02,NE,44,8.0,13.0,99,0.00,,,0.65,Wunderground v.1.15,2013-04-03 15:28:00,
2013-04-03 10:34:00,46.0,45.7,30.04,NNE,27,8.0,13.0,99,0.00,,,0.65,Wunderground v.1.15,2013-04-03 15:34:00,
2013-04-03 10:40:00,46.1,45.8,30.06,North,356,8.0,8.0,99,0.00,,,0.65,Wunderground v.1.15,2013-04-03 15:40:00,
2013-04-03 10:46:00,46.1,45.8,30.07,North,354,8.0,9.0,99,0.00,,,0.65,Wunderground v.1.15,2013-04-03 15:46:00,
2013-04-03 10:51:00,46.1,45.8,30.07,NNE,23,8.0,10.0,99,0.00,,,0.65,Wunderground v.1.15,2013-04-03 15:51:00,
2013-04-03 10:56:00,46.0,45.7,30.05,North,6,8.0,13.0,99,0.00,,,0.65,Wunderground v.1.15,2013-04-03 15:56:00,
2013-04-03 11:01:00,46.1,45.8,30.06,NNW,346,8.0,14.0,99,0.00,,,0.65,Wunderground v.1.15,2013-04-03 16:01:00,
2013-04-03 11:07:00,46.2,45.9,30.04,NE,39,8.0,14.0,99,0.00,,,0.65,Wunderground v.1.15,2013-04-03 16:07:00,
2013-04-03 11:12:00,46.3,46.0,30.03,NE,45,9.0,14.0,99,0.00,,,0.65,Wunderground v.1.15,2013-04-03 16:12:00,
2013-04-03 11:18:00,46.6,46.6,30.03,NNE,19,9.0,14.0,100,0.00,,,0.65,Wunderground v.1.15,2013-04-03 16:18:00,
2013-04-03 11:23:00,46.8,46.8,30.03,NNE,31,9.0,14.0,100,0.00,,,0.65,Wunderground v.1.15,2013-04-03 16:23:00,
2013-04-03 11:29:00,47.0,47.0,30.04,NNE,31,9.0,14.0,100,0.00,,,0.65,Wunderground v.1.15,2013-04-03 16:29:00,
2013-04-03 11:35:00,47.0,47.0,30.05,NNE,27,11.0,16.0,100,0.00,,,0.65,Wunderground v.1.15,2013-04-03 16:35:00,
2013-04-03 11:40:00,46.9,46.9,30.04,NNE,32,11.0,14.0,100,0.00,,,0.65,Wunderground v.1.15,2013-04-03 16:40:00,
2013-04-03 11:45:00,46.9,46.9,30.05,NNE,32,10.0,14.0,100,0.00,,,0.65,Wunderground v.1.15,2013-04-03 16:45:00,
2013-04-03 11:50:00,46.8,46.8,30.05,North,1,9.0,9.0,100,0.00,,,0.65,Wunderground v.1.15,2013-04-03 16:50:00,
2013-04-03 11:55:00,46.7,46.7,30.05,NNE,20,9.0,14.0,100,0.00,,,0.65,Wunderground v.1.15,2013-04-03 16:55:00,
2013-04-03 12:01:00,46.6,46.6,30.05,NNE,12,10.0,11.0,100,0.00,,,0.65,Wunderground v.1.15,2013-04-03 17:01:00,
2013-04-03 12:07:00,46.8,46.8,30.05,NNW,346,9.0,14.0,100,0.00,,,0.65,Wunderground v.1.15,2013-04-03 17:07:00,
2013-04-03 12:13:00,46.8,46.8,30.05,North,3,9.0,14.0,100,0.00,,,0.65,Wunderground v.1.15,2013-04-03 17:13:00,
2013-04-03 12:19:00,46.8,46.8,30.06,NNW,345,10.0,14.0,100,0.00,,,0.65,Wunderground v.1.15,2013-04-03 17:19:00,
2013-04-03 12:24:00,46.8,46.8,30.05,North,355,10.0,14.0,100,0.00,,,0.65,Wunderground v.1.15,2013-04-03 17:24:00,
2013-04-03 12:29:00,46.8,46.8,30.04,NNE,18,9.0,14.0,100,0.00,,,0.65,Wunderground v.1.15,2013-04-03 17:29:00,
2013-04-03 12:35:00,46.7,46.7,30.05,North,354,9.0,14.0,100,0.00,,,0.65,Wunderground v.1.15,2013-04-03 17:35:00,
2013-04-03 12:41:00,46.7,46.7,30.07,North,352,10.0,14.0,100,0.00,,,0.65,Wunderground v.1.15,2013-04-03 17:41:00,
2013-04-03 12:46:00,46.6,46.6,30.06,NNE,26,10.0,14.0,100,0.00,,,0.65,Wunderground v.1.15,2013-04-03 17:46:00,
2013-04-03 12:52:00,46.7,46.7,30.06,North,354,9.0,14.0,100,0.00,,,0.65,Wunderground v.1.15,2013-04-03 17:52:00,
2013-04-03 12:57:00,46.8,46.8,30.06,North,352,8.0,14.0,100,0.00,,,0.66,Wunderground v.1.15,2013-04-03 17:57:00,
2013-04-03 13:02:00,46.9,46.9,30.06,NNE,29,7.0,14.0,100,0.00,,,0.66,Wunderground v.1.15,2013-04-03 18:02:00,
2013-04-03 13:07:00,46.9,46.9,30.06,NNE,32,6.0,14.0,100,0.00,,,0.66,Wunderground v.1.15,2013-04-03 18:07:00,
2013-04-03 13:12:00,47.0,47.0,30.03,ENE,65,5.0,14.0,100,0.00,,,0.66,Wunderground v.1.15,2013-04-03 18:12:00,
2013-04-03 13:18:00,46.9,46.9,30.04,NE,48,7.0,14.0,100,0.00,,,0.67,Wunderground v.1.15,2013-04-03 18:18:00,
2013-04-03 13:23:00,47.1,47.1,30.03,ENE,77,6.0,14.0,100,0.00,,,0.67,Wunderground v.1.15,2013-04-03 18:23:00,
2013-04-03 13:29:00,47.1,47.1,30.06,NNW,345,5.0,14.0,100,0.06,,,0.68,Wunderground v.1.15,2013-04-03 18:29:00,
2013-04-03 13:35:00,47.2,47.2,30.04,NW,324,8.0,14.0,100,0.10,,,0.69,Wunderground v.1.15,2013-04-03 18:35:00,
2013-04-03 13:40:00,47.2,47.2,30.05,NNW,340,9.0,14.0,100,0.09,,,0.69,Wunderground v.1.15,2013-04-03 18:40:00,
2013-04-03 13:46:00,46.8,46.8,30.05,NNW,342,10.0,17.0,100,0.09,,,0.70,Wunderground v.1.15,2013-04-03 18:46:00,
2013-04-03 13:51:00,46.7,46.7,30.03,North,11,11.0,14.0,100,0.05,,,0.70,Wunderground v.1.15,2013-04-03 18:51:00,
2013-04-03 13:57:00,46.7,46.7,30.02,NNE,13,10.0,14.0,100,0.04,,,0.70,Wunderground v.1.15,2013-04-03 18:57:00,
2013-04-03 14:02:00,46.8,46.8,30.03,NNW,334,9.0,14.0,100,0.00,,,0.70,Wunderground v.1.15,2013-04-03 19:02:00,
2013-04-03 14:07:00,46.7,46.7,30.05,NNW,330,9.0,14.0,100,0.00,,,0.70,Wunderground v.1.15,2013-04-03 19:07:00,
2013-04-03 14:13:00,46.5,46.5,30.04,NNW,345,12.0,14.0,100,0.00,,,0.70,Wunderground v.1.15,2013-04-03 19:13:00,
2013-04-03 14:18:00,46.4,46.4,30.03,North,357,12.0,14.0,100,0.00,,,0.70,Wunderground v.1.15,2013-04-03 19:18:00,
2013-04-03 14:24:00,46.4,46.4,30.03,NNW,342,11.0,14.0,100,0.00,,,0.70,Wunderground v.1.15,2013-04-03 19:24:00,
2013-04-03 14:30:00,46.5,46.5,30.03,NE,43,11.0,14.0,100,0.00,,,0.70,Wunderground v.1.15,2013-04-03 19:30:00,
2013-04-03 14:35:00,46.5,46.5,30.03,North,9,11.0,14.0,100,0.00,,,0.70,Wunderground v.1.15,2013-04-03 19:35:00,
2013-04-03 14:41:00,46.5,46.5,30.05,NW,326,10.0,11.0,100,0.00,,,0.70,Wunderground v.1.15,2013-04-03 19:41:00,
2013-04-03 14:46:00,46.4,46.4,30.05,NNE,29,8.0,14.0,100,0.00,,,0.70,Wunderground v.1.15,2013-04-03 19:46:00,
2013-04-03 14:52:00,46.3,46.3,30.07,NNW,347,7.0,14.0,100,0.00,,,0.70,Wunderground v.1.15,2013-04-03 19:52:00,
2013-04-03 14:58:00,46.2,46.2,30.05,North,358,8.0,14.0,100,0.00,,,0.70,Wunderground v.1.15,2013-04-03 19:58:00,
2013-04-03 15:03:00,46.2,46.2,30.05,NNW,342,8.0,14.0,100,0.00,,,0.70,Wunderground v.1.15,2013-04-03 20:03:00,
2013-04-03 15:08:00,46.4,46.4,30.06,NNW,329,8.0,14.0,100,0.00,,,0.70,Wunderground v.1.15,2013-04-03 20:08:00,
2013-04-03 15:13:00,46.3,46.3,30.07,North,350,9.0,15.0,100,0.00,,,0.70,Wunderground v.1.15,2013-04-03 20:13:00,
2013-04-03 15:19:00,46.4,46.4,30.08,NNW,339,9.0,15.0,100,0.00,,,0.70,Wunderground v.1.15,2013-04-03 20:19:00,
2013-04-03 15:24:00,46.5,46.5,30.06,NNW,340,9.0,14.0,100,0.00,,,0.70,Wunderground v.1.15,2013-04-03 20:24:00,
2013-04-03 15:29:00,46.5,46.5,30.03,NNW,334,8.0,14.0,100,0.00,,,0.70,Wunderground v.1.15,2013-04-03 20:29:00,
2013-04-03 15:35:00,46.6,46.6,30.03,North,1,10.0,14.0,100,0.00,,,0.70,Wunderground v.1.15,2013-04-03 20:35:00,
2013-04-03 15:40:00,46.7,46.7,30.03,NNE,19,10.0,10.0,100,0.00,,,0.70,Wunderground v.1.15,2013-04-03 20:40:00,
2013-04-03 15:45:00,46.9,46.9,30.03,NNW,348,9.0,14.0,100,0.00,,,0.70,Wunderground v.1.15,2013-04-03 20:45:00,
2013-04-03 15:50:00,46.8,46.8,30.04,North,356,10.0,16.0,100,0.00,,,0.70,Wunderground v.1.15,2013-04-03 20:50:00,
2013-04-03 15:55:00,46.7,46.7,30.04,NNE,24,11.0,16.0,100,0.00,,,0.70,Wunderground v.1.15,2013-04-03 20:55:00,
2013-04-03 16:01:00,46.8,46.8,30.03,NNW,340,12.0,17.0,100,0.00,,,0.70,Wunderground v.1.15,2013-04-03 21:01:00,
2013-04-03 16:06:00,46.9,46.9,30.04,NNE,25,12.0,17.0,100,0.00,,,0.70,Wunderground v.1.15,2013-04-03 21:06:00,
2013-04-03 16:12:00,47.0,47.0,30.03,NNW,336,11.0,18.0,100,0.00,,,0.70,Wunderground v.1.15,2013-04-03 21:12:00,
2013-04-03 16:17:00,46.8,46.8,30.03,North,354,12.0,18.0,100,0.00,,,0.70,Wunderground v.1.15,2013-04-03 21:17:00,
2013-04-03 16:23:00,46.7,46.7,30.04,NNE,25,12.0,14.0,100,0.00,,,0.70,Wunderground v.1.15,2013-04-03 21:23:00,
2013-04-03 16:28:00,46.9,46.9,30.04,North,356,11.0,14.0,100,0.00,,,0.70,Wunderground v.1.15,2013-04-03 21:28:00,
2013-04-03 16:34:00,46.7,46.4,30.04,North,350,10.0,14.0,99,0.00,,,0.70,Wunderground v.1.15,2013-04-03 21:34:00,
2013-04-03 16:39:00,46.5,46.2,30.04,NNE,16,11.0,14.0,99,0.00,,,0.70,Wunderground v.1.15,2013-04-03 21:39:00,
2013-04-03 16:45:00,46.5,46.2,30.04,NNE,29,11.0,14.0,99,0.00,,,0.70,Wunderground v.1.15,2013-04-03 21:45:00,
2013-04-03 16:50:00,46.6,46.3,30.04,NNW,339,10.0,10.0,99,0.00,,,0.70,Wunderground v.1.15,2013-04-03 21:50:00,
2013-04-03 16:56:00,46.7,46.4,30.04,North,360,9.0,14.0,99,0.00,,,0.70,Wunderground v.1.15,2013-04-03 21:56:00,
2013-04-03 17:02:00,46.9,46.6,30.05,North,8,9.0,14.0,99,0.00,,,0.70,Wunderground v.1.15,2013-04-03 22:02:00,
2013-04-03 17:07:00,46.9,46.6,30.05,NNW,345,8.0,14.0,99,0.00,,,0.70,Wunderground v.1.15,2013-04-03 22:07:00,
2013-04-03 17:12:00,47.0,46.7,30.05,North,350,8.0,14.0,99,0.00,,,0.70,Wunderground v.1.15,2013-04-03 22:12:00,
2013-04-03 17:17:00,46.9,46.6,30.05,NNE,29,11.0,14.0,99,0.00,,,0.70,Wunderground v.1.15,2013-04-03 22:17:00,
2013-04-03 17:23:00,47.1,46.8,30.05,NNE,18,11.0,14.0,99,0.00,,,0.70,Wunderground v.1.15,2013-04-03 22:23:00,
2013-04-03 17:28:00,47.1,46.8,30.05,NNE,29,9.0,14.0,99,0.00,,,0.70,Wunderground v.1.15,2013-04-03 22:28:00,
2013-04-03 17:34:00,47.1,46.8,30.05,North,349,10.0,14.0,99,0.00,,,0.70,Wunderground v.1.15,2013-04-03 22:34:00,
2013-04-03 17:39:00,47.1,46.8,30.05,North,359,10.0,14.0,99,0.00,,,0.70,Wunderground v.1.15,2013-04-03 22:39:00,
2013-04-03 17:45:00,47.1,46.8,30.05,North,1,10.0,14.0,99,0.00,,,0.70,Wunderground v.1.15,2013-04-03 22:45:00,
2013-04-03 17:51:00,47.1,46.8,30.06,NE,42,9.0,14.0,99,0.00,,,0.70,Wunderground v.1.15,2013-04-03 22:51:00,
2013-04-03 17:56:00,47.0,46.7,30.06,North,349,11.0,17.0,99,0.00,,,0.70,Wunderground v.1.15,2013-04-03 22:56:00,
2013-04-03 18:02:00,47.1,46.6,30.06,NNE,29,10.0,14.0,98,0.00,,,0.70,Wunderground v.1.15,2013-04-03 23:02:00,
2013-04-03 18:08:00,47.1,46.6,30.07,NNE,26,8.0,14.0,98,0.00,,,0.70,Wunderground v.1.15,2013-04-03 23:08:00,
2013-04-03 18:14:00,47.2,46.4,30.07,NNE,21,8.0,14.0,97,0.00,,,0.70,Wunderground v.1.15,2013-04-03 23:14:00,
2013-04-03 18:19:00,47.1,46.3,30.07,North,352,8.0,14.0,97,0.00,,,0.70,Wunderground v.1.15,2013-04-03 23:19:00,
2013-04-03 18:25:00,47.1,46.3,30.07,North,1,8.0,14.0,97,0.00,,,0.70,Wunderground v.1.15,2013-04-03 23:25:00,
2013-04-03 18:31:00,47.0,46.2,30.07,NNE,27,8.0,10.0,97,0.00,,,0.70,Wunderground v.1.15,2013-04-03 23:31:00,
2013-04-03 18:36:00,46.9,46.4,30.08,NNW,345,7.0,14.0,98,0.00,,,0.70,Wunderground v.1.15,2013-04-03 23:36:00,
2013-04-03 18:42:00,46.9,46.4,30.08,North,354,7.0,14.0,98,0.00,,,0.70,Wunderground v.1.15,2013-04-03 23:42:00,
2013-04-03 18:48:00,46.7,46.2,30.08,NNE,21,7.0,14.0,98,0.00,,,0.70,Wunderground v.1.15,2013-04-03 23:48:00,
2013-04-03 18:53:00,46.6,46.1,30.08,NNE,12,7.0,14.0,98,0.00,,,0.70,Wunderground v.1.15,2013-04-03 23:53:00,
2013-04-03 18:59:00,46.5,46.0,30.08,North,349,7.0,14.0,98,0.00,,,0.70,Wunderground v.1.15,2013-04-03 23:59:00,
2013-04-03 19:04:00,46.4,45.9,30.08,NNE,30,8.0,14.0,98,0.00,,,0.70,Wunderground v.1.15,2013-04-04 00:04:00,
2013-04-03 19:10:00,46.3,45.8,30.08,North,354,9.0,14.0,98,0.00,,,0.70,Wunderground v.1.15,2013-04-04 00:10:00,
2013-04-03 19:15:00,46.2,45.7,30.08,North,350,9.0,14.0,98,0.00,,,0.70,Wunderground v.1.15,2013-04-04 00:15:00,
2013-04-03 19:21:00,46.0,45.5,30.09,NNW,345,9.0,14.0,98,0.00,,,0.70,Wunderground v.1.15,2013-04-04 00:21:00,
2013-04-03 19:26:00,45.8,45.3,30.09,NNW,342,9.0,14.0,98,0.00,,,0.70,Wunderground v.1.15,2013-04-04 00:26:00,
2013-04-03 19:31:00,45.7,45.2,30.09,North,1,8.0,14.0,98,0.00,,,0.70,Wunderground v.1.15,2013-04-04 00:31:00,
2013-04-03 19:37:00,45.7,45.2,30.09,NNE,30,7.0,14.0,98,0.00,,,0.70,Wunderground v.1.15,2013-04-04 00:37:00,
2013-04-03 19:42:00,45.6,45.1,30.09,North,356,8.0,14.0,98,0.00,,,0.70,Wunderground v.1.15,2013-04-04 00:42:00,
2013-04-03 19:47:00,45.5,45.0,30.10,NNE,15,9.0,14.0,98,0.00,,,0.70,Wunderground v.1.15,2013-04-04 00:47:00,
2013-04-03 19:52:00,45.4,44.9,30.10,NNE,15,8.0,14.0,98,0.00,,,0.70,Wunderground v.1.15,2013-04-04 00:52:00,
2013-04-03 19:58:00,45.4,44.9,30.10,NNE,21,8.0,14.0,98,0.00,,,0.70,Wunderground v.1.15,2013-04-04 00:58:00,
2013-04-03 20:03:00,45.4,44.9,30.10,NW,326,7.0,14.0,98,0.00,,,0.70,Wunderground v.1.15,2013-04-04 01:03:00,
2013-04-03 20:08:00,45.3,44.8,30.10,NNW,329,6.0,14.0,98,0.00,,,0.70,Wunderground v.1.15,2013-04-04 01:08:00,
2013-04-03 20:14:00,45.2,44.7,30.10,NNW,342,7.0,14.0,98,0.00,,,0.70,Wunderground v.1.15,2013-04-04 01:14:00,
2013-04-03 20:19:00,45.1,44.6,30.10,NNW,344,8.0,14.0,98,0.00,,,0.70,Wunderground v.1.15,2013-04-04 01:19:00,
2013-04-03 20:25:00,45.1,44.6,30.10,NNE,29,8.0,14.0,98,0.00,,,0.70,Wunderground v.1.15,2013-04-04 01:25:00,
2013-04-03 20:31:00,45.1,44.6,30.11,NNE,17,9.0,14.0,98,0.00,,,0.70,Wunderground v.1.15,2013-04-04 01:31:00,
2013-04-03 20:36:00,45.1,44.6,30.11,NNW,338,8.0,14.0,98,0.00,,,0.70,Wunderground v.1.15,2013-04-04 01:36:00,
2013-04-03 20:42:00,45.1,44.6,30.11,NE,44,8.0,14.0,98,0.00,,,0.70,Wunderground v.1.15,2013-04-04 01:42:00,
2013-04-03 20:47:00,45.1,44.6,30.11,North,352,9.0,14.0,98,0.00,,,0.70,Wunderground v.1.15,2013-04-04 01:47:00,
2013-04-03 20:53:00,45.1,44.6,30.12,NNW,342,8.0,14.0,98,0.00,,,0.70,Wunderground v.1.15,2013-04-04 01:53:00,
2013-04-03 20:58:00,45.2,44.7,30.12,NNE,21,8.0,14.0,98,0.00,,,0.70,Wunderground v.1.15,2013-04-04 01:58:00,
2013-04-03 21:04:00,45.2,44.7,30.12,North,11,7.0,14.0,98,0.00,,,0.70,Wunderground v.1.15,2013-04-04 02:04:00,
2013-04-03 21:10:00,45.2,44.7,30.13,North,3,7.0,7.0,98,0.00,,,0.70,Wunderground v.1.15,2013-04-04 02:10:00,
2013-04-03 21:15:00,45.2,44.7,30.13,North,6,6.0,14.0,98,0.00,,,0.70,Wunderground v.1.15,2013-04-04 02:15:00,
2013-04-03 21:21:00,45.3,44.8,30.13,NE,37,6.0,14.0,98,0.00,,,0.70,Wunderground v.1.15,2013-04-04 02:21:00,
2013-04-03 21:27:00,45.3,44.8,30.13,North,3,6.0,14.0,98,0.00,,,0.70,Wunderground v.1.15,2013-04-04 02:27:00,
2013-04-03 21:32:00,45.4,44.9,30.13,North,360,6.0,14.0,98,0.00,,,0.70,Wunderground v.1.15,2013-04-04 02:32:00,
2013-04-03 21:38:00,45.5,45.0,30.14,NNE,19,6.0,14.0,98,0.00,,,0.70,Wunderground v.1.15,2013-04-04 02:38:00,
2013-04-03 21:43:00,45.5,45.0,30.14,North,359,7.0,14.0,98,0.00,,,0.70,Wunderground v.1.15,2013-04-04 02:43:00,
2013-04-03 21:50:00,45.6,44.8,30.14,NNW,346,7.0,7.0,97,0.00,,,0.70,Wunderground v.1.15,2013-04-04 02:50:00,
2013-04-03 21:56:00,45.6,44.8,30.15,NNW,342,6.0,14.0,97,0.00,,,0.70,Wunderground v.1.15,2013-04-04 02:56:00,
2013-04-03 22:01:00,45.7,44.9,30.15,North,1,6.0,14.0,97,0.00,,,0.70,Wunderground v.1.15,2013-04-04 03:01:00,
2013-04-03 22:07:00,45.6,44.8,30.15,North,11,6.0,14.0,97,0.00,,,0.70,Wunderground v.1.15,2013-04-04 03:07:00,
2013-04-03 22:13:00,45.6,44.8,30.15,NNW,348,7.0,14.0,97,0.00,,,0.70,Wunderground v.1.15,2013-04-04 03:13:00,
2013-04-03 22:19:00,45.5,44.7,30.15,NNW,347,7.0,14.0,97,0.00,,,0.70,Wunderground v.1.15,2013-04-04 03:19:00,
2013-04-03 22:24:00,45.5,44.7,30.15,NNE,15,6.0,14.0,97,0.00,,,0.70,Wunderground v.1.15,2013-04-04 03:24:00,
2013-04-03 22:29:00,45.5,44.7,30.16,NNE,25,5.0,14.0,97,0.00,,,0.70,Wunderground v.1.15,2013-04-04 03:29:00,
2013-04-03 22:35:00,45.5,44.7,30.16,NNW,338,5.0,14.0,97,0.00,,,0.70,Wunderground v.1.15,2013-04-04 03:35:00,
2013-04-03 22:41:00,45.3,44.5,30.16,NNW,340,7.0,14.0,97,0.00,,,0.70,Wunderground v.1.15,2013-04-04 03:41:00,
2013-04-03 22:46:00,45.3,44.5,30.16,NNW,342,7.0,14.0,97,0.00,,,0.70,Wunderground v.1.15,2013-04-04 03:46:00,
2013-04-03 22:51:00,45.2,44.4,30.16,North,349,7.0,14.0,97,0.00,,,0.70,Wunderground v.1.15,2013-04-04 03:51:00,
2013-04-03 22:57:00,45.2,44.4,30.16,NW,326,7.0,14.0,97,0.00,,,0.70,Wunderground v.1.15,2013-04-04 03:57:00,
2013-04-03 23:00:00,45.2,44.4,30.16,North,349,7.0,7.0,97,0.00,,,0.70,Wunderground v.1.15,2013-04-04 04:00:00,
2013-04-03 23:01:00,45.2,44.4,30.16,NNW,340,6.0,14.0,97,0.00,,,0.70,Wunderground v.1.15,2013-04-04 04:01:00,
2013-04-03 23:02:00,45.3,44.5,30.16,North,354,6.0,14.0,97,0.00,,,0.70,Wunderground v.1.15,2013-04-04 04:02:00,
2013-04-03 23:04:00,45.2,44.4,30.16,NNW,335,7.0,14.0,97,0.00,,,0.70,Wunderground v.1.15,2013-04-04 04:04:00,
2013-04-03 23:09:00,45.3,44.5,30.17,NW,326,7.0,14.0,97,0.00,,,0.70,Wunderground v.1.15,2013-04-04 04:09:00,
2013-04-03 23:15:00,45.3,44.5,30.17,North,1,6.0,14.0,97,0.00,,,0.70,Wunderground v.1.15,2013-04-04 04:15:00,
2013-04-03 23:20:00,45.3,44.5,30.17,NNW,335,6.0,14.0,97,0.00,,,0.70,Wunderground v.1.15,2013-04-04 04:20:00,
2013-04-03 23:42:00,45.3,44.5,30.16,NNW,346,6.0,14.0,97,0.00,,,0.70,Wunderground v.1.15,2013-04-04 04:42:00,
2013-04-03 23:47:00,45.3,44.2,30.16,NNW,332,6.0,14.0,96,0.00,,,0.70,Wunderground v.1.15,2013-04-04 04:47:00,
2013-04-03 23:52:00,45.3,44.2,30.16,North,356,7.0,14.0,96,0.00,,,0.70,Wunderground v.1.15,2013-04-04 04:52:00,
2013-04-03 23:58:00,45.2,44.1,30.16,North,352,7.0,14.0,96,0.00,,,0.70,Wunderground v.1.15,2013-04-04 04:58:00,